Time;durP1;ratioP1;P1;durP2;ratioP2;P2;SDS_P1;SDS_P2;PMS_P1;PMS_P2;Temp;Humidity;BMP_temperature;BMP_pressure;BME280_temperature;BME280_humidity;BME280_pressure;Samples;Min_cycle;Max_cycle;Signal;HPM_P1;HPM_P2
2023/02/22 00:00:52;;;;;;;;;;;;;;;3.16;68.60;93386.38;5019374;28;19960;-48
2023/02/22 00:03:26;;;;;;;;;;;;;;;3.09;68.43;93382.16;5020958;28;19964;-48
2023/02/22 00:05:57;;;;;;;;;;;;;;;3.03;68.57;93384.19;5026908;28;19917;-48
2023/02/22 00:08:24;;;;;;;;;;;;;;;2.76;69.16;93383.03;5026939;28;20577;-50
2023/02/22 00:10:52;;;;;;;;;;;;;;;2.86;69.71;93384.22;5026176;28;20032;-47
2023/02/22 00:13:18;;;;;;;;;;;;;;;2.52;69.36;93392.97;5015464;28;19932;-48
2023/02/22 00:15:43;;;;;;;;;;;;;;;2.42;70.78;93386.31;5013883;28;19917;-50
2023/02/22 00:18:10;;;;;;;;;;;;;;;2.61;69.79;93379.84;5007757;28;19918;-50
2023/02/22 00:20:38;;;;;;;;;;;;;;;2.57;71.35;93378.59;5007096;28;19924;-49
2023/02/22 00:23:06;;;;;;;;;;;;;;;2.35;71.29;93384.84;5020372;28;19924;-49
2023/02/22 00:25:31;;;;;;;;;;;;;;;2.43;70.33;93383.06;5027389;28;19921;-49
2023/02/22 00:27:57;;;;;;;;;;;;;;;2.50;70.40;93377.13;5012784;28;20384;-48
2023/02/22 00:30:23;;;;;;;;;;;;;;;2.27;71.09;93378.41;5018782;28;19917;-49
2023/02/22 00:32:48;;;;;;;;;;;;;;;2.12;71.52;93380.66;5016635;28;20344;-50
2023/02/22 00:35:14;;;;;;;;;;;;;;;2.18;72.54;93375.94;5011773;28;19925;-49
2023/02/22 00:37:42;;;;;;;;;;;;;;;2.09;71.94;93370.75;5011419;28;19956;-49
2023/02/22 00:40:08;;;;;;;;;;;;;;;2.30;71.71;93369.22;5011423;28;19975;-48
2023/02/22 00:42:34;;;;;;;;;;;;;;;2.20;71.88;93368.75;5011674;28;19913;-49
2023/02/22 00:44:59;;;;;;;;;;;;;;;2.21;71.47;93374.94;5009511;28;19922;-49
2023/02/22 00:47:25;;;;;;;;;;;;;;;2.03;72.63;93364.56;5011490;28;19924;-48
2023/02/22 00:49:51;;;;;;;;;;;;;;;2.14;71.83;93370.00;5011266;28;19924;-48
2023/02/22 00:52:16;;;;;;;;;;;;;;;2.07;72.11;93363.06;5011036;28;19929;-48
2023/02/22 00:54:41;;;;;;;;;;;;;;;1.75;72.94;93359.13;5027657;28;19917;-49
2023/02/22 00:57:06;;;;;;;;;;;;;;;1.75;73.16;93363.81;5030991;28;19939;-48
2023/02/22 00:59:32;;;;;;;;;;;;;;;1.72;72.94;93356.63;5029158;28;19974;-48
2023/02/22 01:01:57;;;;;;;;;;;;;;;1.67;73.64;93357.38;5030409;28;19940;-49
2023/02/22 01:04:22;;;;;;;;;;;;;;;1.46;74.14;93351.41;5022614;28;20016;-48
2023/02/22 01:06:48;;;;;;;;;;;;;;;1.70;74.17;93351.69;5011320;28;19913;-50
2023/02/22 01:09:13;;;;;;;;;;;;;;;1.69;73.99;93350.19;5010950;28;20535;-49
2023/02/22 01:11:38;;;;;;;;;;;;;;;1.73;73.05;93342.53;5010516;28;19920;-47
2023/02/22 01:14:03;;;;;;;;;;;;;;;1.76;73.21;93344.25;5011269;28;19917;-49
2023/02/22 01:16:29;;;;;;;;;;;;;;;1.94;72.80;93349.22;5010894;28;20547;-49
2023/02/22 01:18:54;;;;;;;;;;;;;;;1.78;73.07;93343.75;5011046;28;19924;-49
2023/02/22 01:21:19;;;;;;;;;;;;;;;1.80;72.82;93344.75;5010124;28;19940;-48
2023/02/22 01:23:44;;;;;;;;;;;;;;;1.67;72.67;93341.03;5010167;28;19921;-49
2023/02/22 01:26:10;;;;;;;;;;;;;;;1.93;73.09;93346.97;5012366;28;19924;-49
2023/02/22 01:28:36;;;;;;;;;;;;;;;1.72;73.14;93337.56;5010539;28;19943;-49
2023/02/22 01:31:01;;;;;;;;;;;;;;;1.70;72.99;93332.63;5010059;28;20128;-48
2023/02/22 01:33:27;;;;;;;;;;;;;;;1.40;74.36;93335.09;5020101;28;20071;-48
2023/02/22 01:35:52;;;;;;;;;;;;;;;1.33;75.11;93341.00;5030225;28;20570;-49
2023/02/22 01:38:17;;;;;;;;;;;;;;;1.13;75.55;93324.13;5030663;28;20389;-49
2023/02/22 01:40:45;;;;;;;;;;;;;;;1.04;75.97;93330.53;5022959;28;19913;-50
2023/02/22 01:43:16;;;;;;;;;;;;;;;1.34;75.01;93326.16;5010325;28;19925;-49
2023/02/22 01:45:43;;;;;;;;;;;;;;;1.24;75.59;93329.59;5026349;28;19921;-48
2023/02/22 01:48:14;;;;;;;;;;;;;;;1.18;76.47;93328.84;5030391;28;19913;-48
2023/02/22 01:50:44;;;;;;;;;;;;;;;1.34;75.62;93339.75;5025804;28;19917;-48
2023/02/22 01:53:10;;;;;;;;;;;;;;;1.18;75.71;93335.03;5008818;28;19919;-49
2023/02/22 01:55:36;;;;;;;;;;;;;;;1.42;75.12;93332.59;5008976;28;20456;-47
2023/02/22 01:58:01;;;;;;;;;;;;;;;1.12;76.38;93342.44;5008809;28;19921;-50
2023/02/22 02:00:27;;;;;;;;;;;;;;;1.28;76.07;93344.44;5008539;28;20312;-50
2023/02/22 02:02:58;;;;;;;;;;;;;;;1.23;75.53;93337.03;5010026;28;19918;-49
2023/02/22 02:05:30;;;;;;;;;;;;;;;1.28;76.00;93339.00;5008760;28;19972;-49
2023/02/22 02:07:55;;;;;;;;;;;;;;;1.42;75.76;93331.84;5008752;28;19917;-48
2023/02/22 02:10:23;;;;;;;;;;;;;;;1.19;75.88;93333.06;5010590;28;19925;-49
2023/02/22 02:12:49;;;;;;;;;;;;;;;1.36;75.25;93336.56;5009906;28;19960;-50
2023/02/22 02:15:19;;;;;;;;;;;;;;;1.48;74.52;93338.78;5009967;28;20007;-50
2023/02/22 02:17:45;;;;;;;;;;;;;;;1.71;74.22;93341.53;5010050;28;19999;-49
2023/02/22 02:20:13;;;;;;;;;;;;;;;1.66;73.09;93339.56;5009247;28;20402;-50
2023/02/22 02:22:59;;;;;;;;;;;;;;;1.53;75.05;93337.31;5007454;28;19917;-51
2023/02/22 02:25:27;;;;;;;;;;;;;;;1.43;75.35;93336.06;5009829;28;19921;-49
2023/02/22 02:27:55;;;;;;;;;;;;;;;1.50;75.44;93328.16;5011218;28;19960;-50
2023/02/22 02:30:40;;;;;;;;;;;;;;;1.39;75.52;93335.56;5009805;28;20463;-49
2023/02/22 02:33:11;;;;;;;;;;;;;;;1.28;75.84;93338.25;5011041;28;19987;-48
2023/02/22 02:35:56;;;;;;;;;;;;;;;1.20;76.42;93335.28;5009182;28;19933;-49
2023/02/22 02:38:25;;;;;;;;;;;;;;;1.26;76.28;93341.47;5008715;28;19918;-49
2023/02/22 02:40:56;;;;;;;;;;;;;;;1.30;75.56;93346.69;5008431;28;19917;-48
2023/02/22 02:43:32;;;;;;;;;;;;;;;1.40;76.19;93345.22;5009316;28;19965;-49
2023/02/22 02:46:07;;;;;;;;;;;;;;;1.64;75.26;93347.47;5007219;28;19927;-48
2023/02/22 02:48:33;;;;;;;;;;;;;;;1.42;74.87;93324.44;5009526;28;19920;-49
2023/02/22 02:50:58;;;;;;;;;;;;;;;1.59;74.37;93346.22;5008551;28;19917;-48
2023/02/22 02:53:32;;;;;;;;;;;;;;;1.64;74.54;93342.78;5007561;28;20382;-50
2023/02/22 02:55:58;;;;;;;;;;;;;;;1.48;75.95;93344.22;5007358;28;19921;-48
2023/02/22 02:58:23;;;;;;;;;;;;;;;1.39;75.24;93343.72;5014570;28;19913;-50
2023/02/22 03:00:50;;;;;;;;;;;;;;;1.33;75.83;93342.97;5028545;28;19919;-48
2023/02/22 03:03:28;;;;;;;;;;;;;;;1.34;75.33;93349.91;5028702;28;20007;-49
2023/02/22 03:06:31;;;;;;;;;;;;;;;1.10;76.11;93347.63;5028325;28;19940;-48
2023/02/22 03:08:59;;;;;;;;;;;;;;;1.05;76.21;93342.91;4967322;28;19953;-49
2023/02/22 03:11:27;;;;;;;;;;;;;;;1.31;75.89;93337.28;4967361;28;19918;-50
2023/02/22 03:13:54;;;;;;;;;;;;;;;1.27;76.47;93344.94;4986408;28;19944;-49
2023/02/22 03:16:31;;;;;;;;;;;;;;;1.34;75.49;93344.47;5010252;28;19924;-48
2023/02/22 03:18:59;;;;;;;;;;;;;;;1.24;76.30;93346.66;5008425;28;19924;-49
2023/02/22 03:21:51;;;;;;;;;;;;;;;1.20;76.13;93348.13;5008298;28;20337;-49
2023/02/22 03:24:30;;;;;;;;;;;;;;;1.23;76.03;93352.59;5007442;28;19932;-48
2023/02/22 03:27:01;;;;;;;;;;;;;;;1.28;76.06;93351.84;5016747;28;19951;-49
2023/02/22 03:29:27;;;;;;;;;;;;;;;1.27;75.44;93353.84;5008795;28;19921;-48
2023/02/22 03:31:54;;;;;;;;;;;;;;;1.35;74.71;93356.81;5017285;28;19921;-48
2023/02/22 03:34:24;;;;;;;;;;;;;;;1.14;75.50;93356.28;5006884;28;19942;-48
2023/02/22 03:36:54;;;;;;;;;;;;;;;1.32;74.75;93358.53;5007136;28;20310;-49
2023/02/22 03:39:20;;;;;;;;;;;;;;;1.00;76.74;93351.03;5008356;28;20028;-48
2023/02/22 03:41:47;;;;;;;;;;;;;;;1.05;76.63;93361.94;5006872;28;20077;-50
2023/02/22 03:44:13;;;;;;;;;;;;;;;0.86;77.07;93358.16;5018104;28;19931;-47
2023/02/22 03:46:38;;;;;;;;;;;;;;;0.88;77.01;93361.13;5026293;28;20011;-48
2023/02/22 03:49:08;;;;;;;;;;;;;;;1.06;75.84;93354.53;5023552;28;20044;-47
2023/02/22 03:51:33;;;;;;;;;;;;;;;0.98;76.17;93362.41;5006476;28;20017;-48
2023/02/22 03:53:59;;;;;;;;;;;;;;;1.13;74.95;93362.94;5005867;28;20374;-50
2023/02/22 03:56:25;;;;;;;;;;;;;;;1.04;75.69;93357.00;5007848;28;19924;-49
2023/02/22 03:58:50;;;;;;;;;;;;;;;1.05;75.36;93359.22;5012390;28;19975;-50
2023/02/22 04:01:16;;;;;;;;;;;;;;;1.00;76.11;93357.22;5011382;28;19988;-49
2023/02/22 04:03:41;;;;;;;;;;;;;;;0.99;75.61;93363.91;5014223;28;19925;-49
2023/02/22 04:06:06;;;;;;;;;;;;;;;0.92;76.32;93364.34;5016140;28;19924;-50
2023/02/22 04:08:31;;;;;;;;;;;;;;;0.74;77.08;93362.06;5027114;28;19921;-49
2023/02/22 04:10:57;;;;;;;;;;;;;;;0.75;77.39;93363.56;5027481;28;19971;-48
2023/02/22 04:13:22;;;;;;;;;;;;;;;0.76;76.95;93359.59;5027687;28;19921;-49
2023/02/22 04:15:48;;;;;;;;;;;;;;;0.91;75.97;93364.84;5019654;28;20482;-48
2023/02/22 04:18:13;;;;;;;;;;;;;;;0.75;76.77;93361.59;5027581;28;19913;-52
2023/02/22 04:20:38;;;;;;;;;;;;;;;0.60;77.44;93365.69;5022349;28;20496;-48
2023/02/22 04:23:04;;;;;;;;;;;;;;;0.62;77.78;93366.72;5027072;28;19947;-49
2023/02/22 04:25:29;;;;;;;;;;;;;;;0.47;78.12;93370.81;5026160;28;19923;-48
2023/02/22 04:27:54;;;;;;;;;;;;;;;0.47;78.87;93368.84;5021760;28;19928;-48
2023/02/22 04:30:20;;;;;;;;;;;;;;;0.45;78.94;93367.84;5007999;28;19968;-47
2023/02/22 04:32:45;;;;;;;;;;;;;;;0.33;79.03;93371.72;5020632;28;20409;-49
2023/02/22 04:35:10;;;;;;;;;;;;;;;0.38;78.53;93368.28;5014267;28;20710;-48
2023/02/22 04:37:36;;;;;;;;;;;;;;;0.34;79.13;93367.78;5022914;28;19956;-49
2023/02/22 04:40:02;;;;;;;;;;;;;;;0.37;79.22;93372.97;5007501;28;20548;-49
2023/02/22 04:42:27;;;;;;;;;;;;;;;0.24;79.32;93369.22;5010344;28;19928;-51
2023/02/22 04:44:53;;;;;;;;;;;;;;;0.18;79.24;93371.88;5006462;28;19922;-47
2023/02/22 04:47:18;;;;;;;;;;;;;;;-0.02;79.90;93367.28;5010452;28;19921;-48
2023/02/22 04:49:44;;;;;;;;;;;;;;;0.14;79.84;93367.88;5012645;28;19936;-49
2023/02/22 04:52:09;;;;;;;;;;;;;;;0.14;80.37;93370.59;5022535;28;19972;-49
2023/02/22 04:54:35;;;;;;;;;;;;;;;0.16;80.02;93366.19;5010239;28;19975;-52
2023/02/22 04:57:00;;;;;;;;;;;;;;;0.20;79.33;93365.94;5012916;28;19917;-49
2023/02/22 04:59:25;;;;;;;;;;;;;;;0.20;79.29;93374.09;5016507;28;20023;-49
2023/02/22 05:01:51;;;;;;;;;;;;;;;0.07;80.12;93382.66;5016125;28;19928;-48
2023/02/22 05:04:16;;;;;;;;;;;;;;;0.16;79.44;93379.00;5014221;28;19960;-49
2023/02/22 05:06:41;;;;;;;;;;;;;;;0.13;79.23;93380.72;5013406;28;20011;-50
2023/02/22 05:09:06;;;;;;;;;;;;;;;-0.28;80.25;93385.59;5012509;28;20016;-49
2023/02/22 05:11:32;;;;;;;;;;;;;;;-0.06;80.40;93382.31;5012368;28;20496;-49
2023/02/22 05:13:57;;;;;;;;;;;;;;;-0.05;80.43;93383.81;5013851;28;20035;-48
2023/02/22 05:16:22;;;;;;;;;;;;;;;-0.01;80.94;93381.63;5014133;28;19951;-49
2023/02/22 05:18:47;;;;;;;;;;;;;;;-0.10;81.10;93384.50;5015737;28;19929;-49
2023/02/22 05:21:13;;;;;;;;;;;;;;;-0.19;80.83;93393.56;5026626;28;20036;-48
2023/02/22 05:23:38;;;;;;;;;;;;;;;-0.04;79.99;93399.59;5027755;28;19979;-49
2023/02/22 05:26:05;;;;;;;;;;;;;;;-0.06;80.44;93395.88;5016512;28;19921;-49
2023/02/22 05:28:31;;;;;;;;;;;;;;;0.14;79.21;93397.75;5012020;28;19918;-49
2023/02/22 05:30:56;;;;;;;;;;;;;;;0.27;78.58;93403.53;5009349;28;21469;-49
2023/02/22 05:33:21;;;;;;;;;;;;;;;0.30;78.25;93405.28;5017268;28;19922;-49
2023/02/22 05:35:46;;;;;;;;;;;;;;;0.05;79.87;93406.06;5012636;28;19936;-49
2023/02/22 05:38:13;;;;;;;;;;;;;;;-0.01;80.33;93412.22;5012062;28;20099;-49
2023/02/22 05:40:39;;;;;;;;;;;;;;;0.07;80.30;93409.03;5012003;28;19918;-49
2023/02/22 05:43:04;;;;;;;;;;;;;;;0.26;79.44;93412.91;5011535;28;20526;-50
2023/02/22 05:45:29;;;;;;;;;;;;;;;0.36;78.75;93419.63;5018297;28;19921;-49
2023/02/22 05:47:55;;;;;;;;;;;;;;;0.24;79.02;93418.81;5009743;28;20004;-47
2023/02/22 05:50:20;;;;;;;;;;;;;;;0.04;80.19;93416.19;5009339;28;19918;-49
2023/02/22 05:52:47;;;;;;;;;;;;;;;-0.11;80.70;93415.59;5010310;28;19953;-48
2023/02/22 05:55:13;;;;;;;;;;;;;;;0.08;80.18;93419.44;5010361;28;19968;-51
2023/02/22 05:57:38;;;;;;;;;;;;;;;0.26;80.27;93427.19;5009633;28;19984;-48
2023/02/22 06:00:05;;;;;;;;;;;;;;;0.47;79.67;93430.56;5028793;28;19942;-49
2023/02/22 06:02:31;;;;;;;;;;;;;;;0.09;78.19;93431.03;5029122;28;19964;-49
2023/02/22 06:04:56;;;;;;;;;;;;;;;0.58;77.12;93427.94;5027980;28;19917;-49
2023/02/22 06:07:21;;;;;;;;;;;;;;;0.84;75.62;93433.25;5028556;28;19917;-50
2023/02/22 06:09:47;;;;;;;;;;;;;;;0.68;76.67;93432.69;5028123;28;20536;-50
2023/02/22 06:12:12;;;;;;;;;;;;;;;0.66;77.22;93435.13;5028093;28;19968;-49
2023/02/22 06:14:39;;;;;;;;;;;;;;;0.50;78.45;93435.78;5024062;28;20497;-50
2023/02/22 06:17:05;;;;;;;;;;;;;;;0.53;78.88;93426.66;5009084;28;19943;-48
2023/02/22 06:19:30;;;;;;;;;;;;;;;0.66;78.57;93440.56;5009608;28;20490;-51
2023/02/22 06:21:56;;;;;;;;;;;;;;;0.78;78.75;93427.78;5009406;28;19917;-50
2023/02/22 06:24:21;;;;;;;;;;;;;;;0.92;78.84;93431.56;5008565;28;19917;-49
2023/02/22 06:26:53;;;;;;;;;;;;;;;1.05;79.21;93429.16;5011021;28;20424;-50
2023/02/22 06:29:18;;;;;;;;;;;;;;;1.39;79.47;93431.50;5009526;28;19971;-48
2023/02/22 06:31:44;;;;;;;;;;;;;;;2.29;74.85;93428.44;5013863;28;19921;-48
2023/02/22 06:34:10;;;;;;;;;;;;;;;3.12;71.78;93438.44;5009079;28;20394;-48
2023/02/22 06:36:35;;;;;;;;;;;;;;;3.58;68.90;93437.75;5008699;28;19972;-50
2023/02/22 06:39:00;;;;;;;;;;;;;;;3.61;69.37;93434.78;5009171;28;19945;-49
2023/02/22 06:41:26;;;;;;;;;;;;;;;4.06;68.39;93439.97;5027534;28;20000;-48
2023/02/22 06:43:51;;;;;;;;;;;;;;;4.18;67.46;93438.66;5028929;28;20367;-48
2023/02/22 06:46:16;;;;;;;;;;;;;;;4.97;64.68;93443.69;5028916;28;19913;-50
2023/02/22 06:48:41;;;;;;;;;;;;;;;6.02;61.78;93441.75;5029238;28;20680;-50
2023/02/22 06:51:07;;;;;;;;;;;;;;;7.34;57.69;93429.84;5028714;28;20007;-52
2023/02/22 06:53:33;;;;;;;;;;;;;;;8.46;54.72;93434.50;5029019;28;19917;-49
2023/02/22 06:55:58;;;;;;;;;;;;;;;9.56;51.48;93430.97;5028650;28;19917;-50
2023/02/22 06:58:23;;;;;;;;;;;;;;;10.91;47.44;93424.47;5023228;28;19918;-50
2023/02/22 07:00:49;;;;;;;;;;;;;;;10.98;47.24;93429.25;5008896;28;19913;-51
2023/02/22 07:03:15;;;;;;;;;;;;;;;12.47;44.12;93420.44;5009095;28;20328;-51
2023/02/22 07:05:40;;;;;;;;;;;;;;;13.52;41.52;93421.75;5008829;28;20381;-49
2023/02/22 07:08:06;;;;;;;;;;;;;;;14.18;38.53;93418.13;5008857;28;19925;-51
2023/02/22 07:10:32;;;;;;;;;;;;;;;15.16;38.18;93417.53;5009077;28;20461;-50
2023/02/22 07:12:57;;;;;;;;;;;;;;;17.39;34.79;93418.41;5007663;28;19917;-50
2023/02/22 07:15:23;;;;;;;;;;;;;;;18.73;30.82;93420.34;5008435;28;19979;-49
2023/02/22 07:17:48;;;;;;;;;;;;;;;19.17;31.39;93411.16;5009014;28;20478;-50
2023/02/22 07:20:14;;;;;;;;;;;;;;;20.49;29.82;93412.09;5008513;28;19979;-50
2023/02/22 07:22:39;;;;;;;;;;;;;;;21.22;27.12;93411.25;5008296;28;20033;-50
2023/02/22 07:25:05;;;;;;;;;;;;;;;20.00;28.94;93414.13;5008781;28;20012;-49
2023/02/22 07:27:30;;;;;;;;;;;;;;;20.50;25.69;93410.72;5010202;28;20012;-51
2023/02/22 07:29:55;;;;;;;;;;;;;;;21.88;26.32;93411.97;5008561;28;20012;-50
2023/02/22 07:32:21;;;;;;;;;;;;;;;22.81;25.18;93411.00;5012985;28;19921;-51
2023/02/22 07:34:46;;;;;;;;;;;;;;;23.80;23.65;93419.19;5008189;28;19976;-49
2023/02/22 07:37:11;;;;;;;;;;;;;;;23.34;25.04;93417.81;5022646;28;19921;-51
2023/02/22 07:39:36;;;;;;;;;;;;;;;25.14;21.98;93407.28;5027993;28;19968;-49
2023/02/22 07:42:02;;;;;;;;;;;;;;;25.08;22.09;93412.66;5027895;28;19920;-50
2023/02/22 07:44:27;;;;;;;;;;;;;;;24.25;23.59;93402.88;5027419;28;20572;-51
2023/02/22 07:46:53;;;;;;;;;;;;;;;25.16;22.57;93398.88;5027646;28;19974;-49
2023/02/22 07:49:18;;;;;;;;;;;;;;;25.37;21.53;93408.84;5027997;28;19917;-51
2023/02/22 07:51:43;;;;;;;;;;;;;;;25.19;22.11;93396.81;5028232;28;20364;-51
2023/02/22 07:54:08;;;;;;;;;;;;;;;26.39;19.93;93394.22;5027517;28;20385;-50
2023/02/22 07:56:34;;;;;;;;;;;;;;;26.29;20.12;93400.28;5027753;28;20007;-50
2023/02/22 07:59:00;;;;;;;;;;;;;;;25.82;19.76;93399.94;5027676;28;19959;-50
2023/02/22 08:01:25;;;;;;;;;;;;;;;25.30;19.89;93401.50;5027797;28;20003;-52
2023/02/22 08:03:51;;;;;;;;;;;;;;;25.63;21.07;93397.84;5027500;28;20000;-50
2023/02/22 08:06:17;;;;;;;;;;;;;;;25.61;21.85;93395.66;5027530;28;19917;-53
2023/02/22 08:08:42;;;;;;;;;;;;;;;25.09;22.16;93391.53;5027509;28;19913;-50
2023/02/22 08:11:07;;;;;;;;;;;;;;;25.33;21.26;93400.94;5027924;28;20027;-50
2023/02/22 08:13:33;;;;;;;;;;;;;;;26.78;19.62;93394.91;5027590;28;19995;-51
2023/02/22 08:15:58;;;;;;;;;;;;;;;27.48;19.20;93396.44;5012239;28;19917;-50
2023/02/22 08:18:23;;;;;;;;;;;;;;;28.45;17.81;93394.28;5008043;28;20537;-52
2023/02/22 08:20:50;;;;;;;;;;;;;;;27.42;18.12;93390.59;5007832;28;20004;-51
2023/02/22 08:23:16;;;;;;;;;;;;;;;26.77;17.51;93387.06;5007567;28;20421;-53
2023/02/22 08:25:41;;;;;;;;;;;;;;;28.11;17.23;93384.81;5007970;28;19918;-50
2023/02/22 08:28:08;;;;;;;;;;;;;;;25.11;19.40;93388.78;5007645;28;19918;-51
2023/02/22 08:30:33;;;;;;;;;;;;;;;26.66;18.47;93390.94;5007758;28;19971;-50
2023/02/22 08:33:01;;;;;;;;;;;;;;;26.09;20.72;93383.31;5017098;28;19965;-52
2023/02/22 08:35:26;;;;;;;;;;;;;;;27.95;18.43;93389.31;5007269;28;19926;-50
2023/02/22 08:37:53;;;;;;;;;;;;;;;28.68;17.03;93381.41;5007738;28;19924;-50
2023/02/22 08:40:22;;;;;;;;;;;;;;;28.65;17.33;93382.78;5007795;28;20522;-53
2023/02/22 08:42:47;;;;;;;;;;;;;;;28.57;16.67;93384.66;5007375;28;19980;-50
2023/02/22 08:45:12;;;;;;;;;;;;;;;29.61;15.62;93375.84;5007765;28;19926;-52
2023/02/22 08:47:38;;;;;;;;;;;;;;;29.26;15.46;93376.47;5007432;28;19925;-53
2023/02/22 08:50:03;;;;;;;;;;;;;;;28.13;16.37;93379.19;5007258;28;19917;-50
2023/02/22 08:52:29;;;;;;;;;;;;;;;27.71;16.59;93392.16;5006669;28;20013;-50
2023/02/22 08:54:54;;;;;;;;;;;;;;;27.20;18.69;93380.66;5009278;28;19996;-50
2023/02/22 08:57:20;;;;;;;;;;;;;;;26.99;17.72;93373.63;5011169;28;19917;-53
2023/02/22 08:59:45;;;;;;;;;;;;;;;27.51;16.95;93374.53;5011039;28;19920;-52
2023/02/22 09:02:14;;;;;;;;;;;;;;;27.08;18.52;93374.59;5011207;28;19913;-53
2023/02/22 09:04:40;;;;;;;;;;;;;;;26.88;18.63;93369.72;5010889;28;19921;-52
2023/02/22 09:07:05;;;;;;;;;;;;;;;28.53;16.57;93368.94;5011331;28;19921;-51
2023/02/22 09:09:30;;;;;;;;;;;;;;;27.52;17.92;93364.66;5011196;28;19952;-50
2023/02/22 09:11:55;;;;;;;;;;;;;;;29.44;17.14;93364.78;5010959;28;19922;-52
2023/02/22 09:14:21;;;;;;;;;;;;;;;29.04;16.96;93362.41;5010698;28;19917;-52
2023/02/22 09:16:46;;;;;;;;;;;;;;;28.30;17.82;93371.88;5010765;28;19979;-53
2023/02/22 09:19:13;;;;;;;;;;;;;;;28.79;17.54;93363.22;5010967;28;19918;-53
2023/02/22 09:21:39;;;;;;;;;;;;;;;28.46;17.65;93370.16;5010605;28;20705;-51
2023/02/22 09:24:07;;;;;;;;;;;;;;;29.48;16.59;93362.75;5010615;28;19921;-53
2023/02/22 09:26:33;;;;;;;;;;;;;;;29.55;16.59;93360.75;5012776;28;19971;-53
2023/02/22 09:28:58;;;;;;;;;;;;;;;29.05;17.66;93368.81;5018954;28;20012;-53
2023/02/22 09:31:24;;;;;;;;;;;;;;;28.53;17.17;93356.84;5024297;28;20063;-53
2023/02/22 09:33:49;;;;;;;;;;;;;;;28.45;17.05;93359.47;5022878;28;19916;-54
2023/02/22 09:36:14;;;;;;;;;;;;;;;28.38;17.49;93355.03;5030230;28;20420;-53
2023/02/22 09:38:39;;;;;;;;;;;;;;;29.33;16.31;93351.72;5030224;28;20364;-53
2023/02/22 09:41:15;;;;;;;;;;;;;;;30.04;16.49;93351.84;5029994;28;19976;-54
2023/02/22 09:43:48;;;;;;;;;;;;;;;29.47;17.21;93354.91;5028987;28;19924;-52
2023/02/22 09:46:19;;;;;;;;;;;;;;;29.17;16.45;93352.78;5028859;28;19920;-52
2023/02/22 09:48:58;;;;;;;;;;;;;;;30.13;15.72;93342.06;5030032;28;19917;-53
2023/02/22 09:51:48;;;;;;;;;;;;;;;30.20;16.03;93348.59;5028983;28;19921;-54
2023/02/22 09:54:36;;;;;;;;;;;;;;;30.41;15.84;93350.44;5019779;28;19913;-54
2023/02/22 09:57:03;;;;;;;;;;;;;;;29.74;16.31;93348.38;5019122;28;20431;-53
2023/02/22 09:59:30;;;;;;;;;;;;;;;29.07;17.19;93348.97;5025231;28;19976;-54
2023/02/22 10:01:59;;;;;;;;;;;;;;;29.40;16.65;93339.09;5009930;28;19917;-54
2023/02/22 10:04:40;;;;;;;;;;;;;;;29.03;17.60;93343.19;5009086;28;20016;-54
2023/02/22 10:07:17;;;;;;;;;;;;;;;29.55;16.72;93338.72;5009186;28;20016;-54
2023/02/22 10:09:42;;;;;;;;;;;;;;;29.17;16.47;93337.88;5009818;28;20390;-55
2023/02/22 10:12:11;;;;;;;;;;;;;;;28.39;17.02;93333.78;5009159;28;20016;-55
2023/02/22 10:14:41;;;;;;;;;;;;;;;28.20;17.45;93337.50;5010088;28;19917;-54
2023/02/22 10:17:06;;;;;;;;;;;;;;;28.02;16.77;93325.69;5008853;28;19924;-54
2023/02/22 10:19:37;;;;;;;;;;;;;;;28.12;16.92;93323.09;5010049;28;19917;-55
2023/02/22 10:22:09;;;;;;;;;;;;;;;27.76;16.83;93314.28;5009598;28;19917;-54
2023/02/22 10:24:38;;;;;;;;;;;;;;;26.23;19.49;93312.31;5008301;28;19982;-54
2023/02/22 10:27:04;;;;;;;;;;;;;;;26.93;18.94;93313.91;5009416;28;19913;-53
2023/02/22 10:29:32;;;;;;;;;;;;;;;27.65;17.12;93310.47;5008148;28;19918;-55
2023/02/22 10:31:58;;;;;;;;;;;;;;;28.35;18.22;93300.28;5014659;28;19928;-55
2023/02/22 10:34:27;;;;;;;;;;;;;;;28.52;17.71;93299.31;5021781;28;20321;-53
2023/02/22 10:36:59;;;;;;;;;;;;;;;27.88;17.57;93297.59;5009374;28;19918;-53
2023/02/22 10:39:34;;;;;;;;;;;;;;;28.04;18.67;93286.72;5008271;28;19917;-53
2023/02/22 10:42:04;;;;;;;;;;;;;;;27.93;17.19;93276.47;5007931;28;19914;-54
2023/02/22 10:44:33;;;;;;;;;;;;;;;28.27;17.91;93276.66;5009369;28;19921;-54
2023/02/22 10:46:59;;;;;;;;;;;;;;;28.29;16.55;93271.03;5009376;28;19923;-54
2023/02/22 10:49:24;;;;;;;;;;;;;;;28.24;17.23;93275.16;5008070;28;19967;-54
2023/02/22 10:51:57;;;;;;;;;;;;;;;28.09;17.96;93270.53;5007823;28;19944;-53
2023/02/22 10:54:25;;;;;;;;;;;;;;;27.75;18.14;93267.44;5008185;28;19917;-54
2023/02/22 10:56:51;;;;;;;;;;;;;;;27.63;19.17;93267.84;5008030;28;20328;-54
2023/02/22 10:59:33;;;;;;;;;;;;;;;28.01;18.80;93262.50;5007797;28;19922;-54
2023/02/22 11:01:58;;;;;;;;;;;;;;;27.97;18.71;93255.97;5009023;28;20027;-53
2023/02/22 11:04:24;;;;;;;;;;;;;;;27.66;19.27;93265.78;5007700;28;19968;-53
2023/02/22 11:06:58;;;;;;;;;;;;;;;28.23;16.83;93260.25;5009378;28;19918;-54
2023/02/22 11:09:23;;;;;;;;;;;;;;;27.05;18.50;93261.16;5009148;28;20279;-54
2023/02/22 11:11:49;;;;;;;;;;;;;;;27.25;20.37;93261.03;5008743;28;19928;-54
2023/02/22 11:14:25;;;;;;;;;;;;;;;26.74;19.30;93264.47;5008861;28;19917;-53
2023/02/22 11:16:55;;;;;;;;;;;;;;;27.94;17.10;93249.50;5008004;28;19925;-52
2023/02/22 11:19:24;;;;;;;;;;;;;;;27.95;17.63;93233.94;5007547;28;19960;-54
2023/02/22 11:21:51;;;;;;;;;;;;;;;27.36;18.24;93245.06;5015057;28;19922;-53
2023/02/22 11:24:18;;;;;;;;;;;;;;;27.71;18.66;93238.97;5007417;28;19986;-54
2023/02/22 11:26:48;;;;;;;;;;;;;;;27.35;19.28;93244.38;5008643;28;19913;-54
2023/02/22 11:29:36;;;;;;;;;;;;;;;27.25;18.99;93248.97;5008810;28;19918;-54
2023/02/22 11:32:02;;;;;;;;;;;;;;;27.05;18.66;93237.78;5005312;28;20449;-53
2023/02/22 11:34:28;;;;;;;;;;;;;;;26.96;19.30;93239.63;5008643;28;19929;-53
2023/02/22 11:36:53;;;;;;;;;;;;;;;27.34;18.63;93236.47;5009404;28;19963;-53
2023/02/22 11:39:24;;;;;;;;;;;;;;;26.81;19.27;93240.59;5008962;28;19921;-53
2023/02/22 11:41:49;;;;;;;;;;;;;;;26.79;18.67;93229.22;5008823;28;19924;-54
2023/02/22 11:44:22;;;;;;;;;;;;;;;26.35;18.88;93235.56;5009397;28;19921;-52
2023/02/22 11:46:47;;;;;;;;;;;;;;;26.37;19.29;93233.53;5009054;28;19924;-51
2023/02/22 11:49:16;;;;;;;;;;;;;;;26.68;19.15;93229.56;5009394;28;19913;-54
2023/02/22 11:52:00;;;;;;;;;;;;;;;27.07;18.71;93226.53;5007676;28;19918;-53
2023/02/22 11:54:30;;;;;;;;;;;;;;;26.48;19.15;93220.41;5009164;28;19917;-53
2023/02/22 11:57:06;;;;;;;;;;;;;;;27.08;18.69;93218.72;5009229;28;20600;-53
2023/02/22 11:59:39;;;;;;;;;;;;;;;26.02;19.92;93216.78;5023378;28;20356;-53
2023/02/22 12:02:18;;;;;;;;;;;;;;;26.27;18.66;93207.72;5027106;28;20385;-53
2023/02/22 12:04:52;;;;;;;;;;;;;;;25.69;20.07;93217.81;5027316;28;19925;-53
2023/02/22 12:07:20;;;;;;;;;;;;;;;26.19;18.83;93207.47;5028549;28;19917;-52
2023/02/22 12:09:51;;;;;;;;;;;;;;;25.84;20.67;93207.69;5028061;28;19917;-53
2023/02/22 12:12:22;;;;;;;;;;;;;;;25.02;20.02;93209.03;5027045;28;19967;-53
2023/02/22 12:14:56;;;;;;;;;;;;;;;25.12;20.42;93200.91;5023640;28;20004;-53
2023/02/22 12:17:22;;;;;;;;;;;;;;;24.88;20.27;93207.78;5008680;28;19917;-53
2023/02/22 12:19:53;;;;;;;;;;;;;;;24.70;20.38;93205.72;5008480;28;19921;-53
2023/02/22 12:22:24;;;;;;;;;;;;;;;24.31;21.82;93202.03;5008245;28;19918;-54
2023/02/22 12:24:59;;;;;;;;;;;;;;;24.94;19.43;93197.44;5007313;28;19921;-53
2023/02/22 12:27:30;;;;;;;;;;;;;;;24.68;20.14;93193.59;5008049;28;19918;-53
2023/02/22 12:30:00;;;;;;;;;;;;;;;24.01;21.27;93193.09;5011073;28;19925;-52
2023/02/22 12:32:31;;;;;;;;;;;;;;;24.40;20.69;93186.88;4996697;28;19917;-52
2023/02/22 12:34:58;;;;;;;;;;;;;;;24.15;20.58;93190.13;5014375;28;19977;-52
2023/02/22 12:37:23;;;;;;;;;;;;;;;24.37;21.42;93193.81;5015080;28;19921;-53
2023/02/22 12:39:51;;;;;;;;;;;;;;;23.54;20.54;93184.09;5014624;28;20314;-52
2023/02/22 12:42:17;;;;;;;;;;;;;;;23.51;22.80;93185.38;5014220;28;20029;-54
2023/02/22 12:44:44;;;;;;;;;;;;;;;23.89;22.17;93190.50;5012693;28;19928;-51
2023/02/22 12:47:13;;;;;;;;;;;;;;;23.72;23.03;93184.81;5012790;28;20028;-52
2023/02/22 12:49:43;;;;;;;;;;;;;;;24.18;19.29;93177.53;5013024;28;19917;-51
2023/02/22 12:52:24;;;;;;;;;;;;;;;23.40;22.77;93175.03;5013098;28;19913;-53
2023/02/22 12:54:58;;;;;;;;;;;;;;;23.29;21.12;93171.75;5013944;28;19914;-51